Time;durP1;ratioP1;P1;durP2;ratioP2;P2;SDS_P1;SDS_P2;PMS_P1;PMS_P2;Temp;Humidity;BMP_temperature;BMP_pressure;BME280_temperature;BME280_humidity;BME280_pressure;Samples;Min_cycle;Max_cycle;Signal;HPM_P1;HPM_P2
2022/06/20 00:01:39;;;;;;;18.48;10.15;;;;;;;21.17;56.69;93333.59;5048710;28;20049;-61
2022/06/20 00:04:06;;;;;;;20.15;9.95;;;;;;;21.14;56.65;93334.59;5038053;28;20115;-60
2022/06/20 00:06:33;;;;;;;16.40;9.07;;;;;;;21.06;56.92;93342.66;5047427;28;20041;-61
2022/06/20 00:09:00;;;;;;;18.27;9.70;;;;;;;21.06;57.17;93339.09;5049814;28;20049;-61
2022/06/20 00:11:34;;;;;;;20.90;9.70;;;;;;;21.06;57.33;93344.69;5047947;28;20068;-61
2022/06/20 00:14:01;;;;;;;16.92;10.00;;;;;;;21.05;57.83;93349.50;5039682;28;20045;-62
2022/06/20 00:16:32;;;;;;;18.20;9.70;;;;;;;20.99;57.86;93347.94;5043730;28;20045;-62
2022/06/20 00:19:00;;;;;;;19.98;9.98;;;;;;;20.96;58.17;93346.91;5048553;28;20045;-62
2022/06/20 00:21:27;;;;;;;18.08;10.30;;;;;;;20.88;58.29;93348.63;5049651;28;20043;-62
2022/06/20 00:23:54;;;;;;;18.77;10.83;;;;;;;20.85;58.14;93349.63;5047019;28;20041;-62
2022/06/20 00:26:20;;;;;;;21.20;11.05;;;;;;;20.78;58.71;93353.63;5046881;28;20043;-62
2022/06/20 00:28:48;;;;;;;20.42;11.05;;;;;;;20.80;58.36;93358.72;5049780;28;20049;-62
2022/06/20 00:31:15;;;;;;;22.42;11.55;;;;;;;20.79;58.62;93365.56;5018199;28;20047;-62
2022/06/20 00:33:42;;;;;;;21.40;12.65;;;;;;;20.80;59.04;93367.09;5039607;28;20102;-60
2022/06/20 00:36:09;;;;;;;22.73;11.70;;;;;;;20.81;59.05;93363.03;5045828;28;20051;-59
2022/06/20 00:38:36;;;;;;;20.65;12.38;;;;;;;20.74;59.27;93358.66;5049574;28;20111;-60
2022/06/20 00:41:11;;;;;;;23.85;12.10;;;;;;;20.60;59.96;93362.34;5049519;28;20037;-59
2022/06/20 00:43:42;;;;;;;28.10;12.48;;;;;;;20.60;60.04;93370.72;5028347;28;20075;-61
2022/06/20 00:46:14;;;;;;;22.90;12.48;;;;;;;20.61;60.00;93373.03;5029248;28;20057;-60
2022/06/20 00:48:46;;;;;;;22.30;12.00;;;;;;;20.56;60.02;93365.34;5019624;28;20046;-60
2022/06/20 00:51:23;;;;;;;19.20;11.65;;;;;;;20.55;59.97;93370.16;5017516;28;20046;-61
2022/06/20 00:54:08;;;;;;;22.70;12.35;;;;;;;20.40;60.64;93374.31;5029168;28;20079;-61
2022/06/20 00:56:50;;;;;;;19.23;12.25;;;;;;;20.19;61.41;93371.59;5021200;28;20659;-61
2022/06/20 00:59:25;;;;;;;27.30;13.10;;;;;;;20.13;61.52;93371.53;5048871;28;20084;-60
2022/06/20 01:01:52;;;;;;;21.27;12.80;;;;;;;20.00;61.92;93373.94;5042137;28;20049;-60
2022/06/20 01:04:31;;;;;;;23.00;12.68;;;;;;;20.01;62.06;93372.69;5041139;28;20041;-61
2022/06/20 01:07:00;;;;;;;24.52;13.45;;;;;;;19.99;62.10;93366.09;5049157;28;20036;-60
2022/06/20 01:09:33;;;;;;;22.40;13.32;;;;;;;20.01;62.03;93366.34;5048753;28;20041;-60
2022/06/20 01:12:03;;;;;;;22.52;12.38;;;;;;;20.04;61.63;93357.78;5049178;28;20061;-60
2022/06/20 01:14:34;;;;;;;22.70;12.70;;;;;;;20.10;61.51;93357.81;5047503;28;20051;-61
2022/06/20 01:17:22;;;;;;;23.27;12.82;;;;;;;20.03;61.90;93355.50;5049157;28;20048;-61
2022/06/20 01:20:17;;;;;;;22.17;13.07;;;;;;;19.62;63.96;93367.41;5028384;28;20067;-60
2022/06/20 01:22:52;;;;;;;20.67;12.80;;;;;;;19.66;63.82;93369.97;5047944;28;20453;-61
2022/06/20 01:25:43;;;;;;;20.80;13.07;;;;;;;19.58;64.05;93368.88;5046793;28;20055;-61
2022/06/20 01:28:14;;;;;;;22.03;12.70;;;;;;;19.64;63.66;93369.69;5048547;28;20090;-60
2022/06/20 01:30:44;;;;;;;20.70;12.90;;;;;;;19.66;63.83;93364.41;5049061;28;20045;-60
2022/06/20 01:33:12;;;;;;;23.85;13.13;;;;;;;19.61;63.98;93368.66;5043843;28;20051;-60
2022/06/20 01:38:27;;;;;;;19.17;11.10;;;;;;;19.62;63.46;93361.06;5051284;28;20053;-60
2022/06/20 01:43:41;;;;;;;21.35;13.23;;;;;;;19.40;64.56;93365.13;5025135;28;20770;-60
2022/06/20 01:46:10;;;;;;;19.00;12.95;;;;;;;19.25;65.17;93370.72;5040683;28;20037;-60
2022/06/20 01:48:42;;;;;;;24.27;12.40;;;;;;;19.14;65.58;93374.13;5039020;28;20047;-60
2022/06/20 01:51:19;;;;;;;23.83;12.93;;;;;;;19.22;65.47;93366.16;5038812;28;20490;-61
2022/06/20 01:53:48;;;;;;;21.13;13.00;;;;;;;19.12;65.66;93373.84;5052421;28;20422;-60
2022/06/20 01:56:18;;;;;;;24.05;13.35;;;;;;;19.23;65.22;93384.34;5045399;28;20375;-60
2022/06/20 01:58:51;;;;;;;22.88;13.60;;;;;;;19.28;65.09;93378.13;5045798;28;20051;-60
2022/06/20 02:01:17;;;;;;;20.80;12.35;;;;;;;19.30;64.84;93383.19;5051354;28;20033;-60
2022/06/20 02:03:47;;;;;;;24.73;13.50;;;;;;;19.31;64.81;93374.34;5052138;28;20402;-61
2022/06/20 02:06:17;;;;;;;26.17;13.37;;;;;;;19.30;65.04;93381.19;5051649;28;20049;-61
2022/06/20 02:08:50;;;;;;;25.70;13.68;;;;;;;19.19;65.28;93371.91;5052357;28;20056;-60
2022/06/20 02:11:44;;;;;;;24.27;14.07;;;;;;;19.25;64.93;93378.31;5051822;28;20045;-62
2022/06/20 02:14:22;;;;;;;22.02;12.35;;;;;;;19.23;65.05;93378.03;5039591;28;20057;-61
2022/06/20 02:16:56;;;;;;;23.08;12.45;;;;;;;19.24;65.29;93374.78;5050758;28;20044;-60
2022/06/20 02:19:29;;;;;;;23.47;12.37;;;;;;;19.27;64.66;93381.38;5051730;28;20045;-60
2022/06/20 02:22:02;;;;;;;21.80;13.18;;;;;;;19.04;65.42;93389.41;5052015;28;20287;-61
2022/06/20 02:24:34;;;;;;;29.27;17.65;;;;;;;19.10;65.48;93389.50;5051368;28;20178;-60
2022/06/20 02:27:03;;;;;;;26.25;13.55;;;;;;;18.73;67.13;93389.91;5051666;28;20048;-60
2022/06/20 02:29:31;;;;;;;25.25;13.30;;;;;;;18.88;66.66;93390.69;5051282;28;20048;-61
2022/06/20 02:32:10;;;;;;;21.73;12.70;;;;;;;19.01;66.48;93395.16;5052051;28;20056;-61
2022/06/20 02:34:37;;;;;;;23.17;12.80;;;;;;;19.10;66.01;93403.41;5035371;28;20616;-61
2022/06/20 02:37:09;;;;;;;25.80;13.65;;;;;;;19.07;66.15;93399.56;5051840;28;20102;-61
2022/06/20 02:39:42;;;;;;;26.25;12.57;;;;;;;19.11;66.08;93399.38;5040091;28;21670;-61
2022/06/20 02:42:14;;;;;;;21.55;12.98;;;;;;;19.12;66.15;93403.69;5031150;28;20122;-61
2022/06/20 02:44:48;;;;;;;21.80;12.63;;;;;;;19.05;66.33;93409.63;5030632;28;20051;-60
2022/06/20 02:47:17;;;;;;;20.15;12.38;;;;;;;19.05;66.19;93402.06;5048316;28;20044;-60
2022/06/20 02:49:45;;;;;;;28.48;12.65;;;;;;;18.97;66.55;93400.94;5038309;28;20052;-60
2022/06/20 02:52:20;;;;;;;21.70;13.20;;;;;;;18.67;67.82;93402.97;5049845;28;20075;-60
2022/06/20 02:54:48;;;;;;;23.45;11.68;;;;;;;18.80;67.30;93405.47;5051122;28;20102;-60
2022/06/20 02:57:30;;;;;;;21.83;12.83;;;;;;;18.71;67.23;93407.09;5036911;28;20041;-60
2022/06/20 02:59:59;;;;;;;23.20;12.43;;;;;;;18.65;67.63;93400.69;5051288;28;20105;-60
2022/06/20 03:02:30;;;;;;;20.85;12.35;;;;;;;18.65;67.63;93414.56;5050363;28;20060;-60
2022/06/20 03:04:57;;;;;;;19.92;11.98;;;;;;;18.71;67.56;93409.88;5051250;28;20048;-60
2022/06/20 03:07:29;;;;;;;21.65;12.30;;;;;;;18.72;67.76;93416.94;5050800;28;20099;-61
2022/06/20 03:10:19;;;;;;;18.07;11.03;;;;;;;19.03;64.97;93415.69;5050914;28;20049;-60
2022/06/20 03:12:47;;;;;;;18.02;10.40;;;;;;;19.45;62.38;93422.84;5047815;28;20547;-60
2022/06/20 03:15:14;;;;;;;19.40;9.45;;;;;;;19.82;59.26;93422.34;5037169;28;20440;-60
2022/06/20 03:17:42;;;;;;;21.35;9.60;;;;;;;20.62;56.25;93435.88;5050910;28;20037;-60
2022/06/20 03:20:13;;;;;;;17.58;7.85;;;;;;;21.30;51.13;93431.59;5050230;28;20049;-61
2022/06/20 03:23:05;;;;;;;18.33;7.07;;;;;;;22.06;48.03;93435.81;5050722;28;20057;-60
2022/06/20 03:25:32;;;;;;;14.30;7.03;;;;;;;22.20;47.58;93434.09;5041552;28;20136;-61
2022/06/20 03:27:59;;;;;;;14.68;7.13;;;;;;;22.44;46.68;93432.94;5050524;28;20422;-60
2022/06/20 03:30:47;;;;;;;12.50;7.00;;;;;;;22.53;46.33;93441.81;5049624;28;22061;-61
2022/06/20 03:33:16;;;;;;;15.02;6.25;;;;;;;22.84;45.69;93431.72;5044290;28;20044;-61
2022/06/20 03:35:48;;;;;;;12.57;6.27;;;;;;;22.97;44.42;93436.03;5047599;28;20111;-60
2022/06/20 03:38:15;;;;;;;12.25;6.38;;;;;;;22.99;45.78;93425.09;5049963;28;20048;-60
2022/06/20 03:40:42;;;;;;;12.32;6.30;;;;;;;22.98;45.09;93427.13;5030518;28;20041;-61
2022/06/20 03:43:12;;;;;;;16.88;5.78;;;;;;;23.00;43.92;93416.19;5028316;28;20044;-60
2022/06/20 03:45:45;;;;;;;14.32;6.00;;;;;;;22.97;44.53;93424.84;5026998;28;20155;-61
2022/06/20 03:48:19;;;;;;;13.60;5.57;;;;;;;22.98;46.45;93435.53;5029283;28;20042;-60
2022/06/20 03:50:54;;;;;;;13.23;5.60;;;;;;;22.88;46.73;93434.25;5029687;28;20045;-61
2022/06/20 03:53:33;;;;;;;11.63;5.60;;;;;;;22.77;46.80;93451.78;5029209;28;20045;-60
2022/06/20 03:56:30;;;;;;;10.98;5.53;;;;;;;22.67;47.09;93440.06;5028697;28;20397;-61
2022/06/20 03:59:28;;;;;;;15.90;5.57;;;;;;;22.56;48.82;93440.06;5029453;28;20049;-61
2022/06/20 04:02:03;;;;;;;11.43;5.70;;;;;;;22.54;48.46;93451.75;5023730;28;20661;-60
2022/06/20 04:04:41;;;;;;;13.35;5.55;;;;;;;22.49;48.15;93440.53;5028814;28;20049;-61
2022/06/20 04:07:15;;;;;;;10.45;5.22;;;;;;;22.42;46.76;93444.59;5029506;28;20524;-58
2022/06/20 04:12:41;;;;;;;15.30;5.47;;;;;;;22.14;47.54;93462.03;5022481;28;20077;-59
2022/06/20 04:15:17;;;;;;;11.27;5.33;;;;;;;22.05;51.89;93472.66;5017580;28;20076;-59
2022/06/20 04:18:28;;;;;;;17.27;5.30;;;;;;;21.97;49.31;93480.72;5034453;28;20051;-57
2022/06/20 04:20:58;;;;;;;14.73;5.38;;;;;;;21.65;51.03;93475.25;5029178;28;20045;-60
2022/06/20 04:23:32;;;;;;;8.35;4.88;;;;;;;21.46;52.75;93474.09;5027955;28;20045;-58
2022/06/20 04:26:28;;;;;;;13.55;5.90;;;;;;;21.42;55.12;93477.09;5029631;28;20053;-58
2022/06/20 04:29:00;;;;;;;11.10;5.80;;;;;;;21.22;55.98;93471.63;5024977;28;20602;-58
2022/06/20 04:31:37;;;;;;;15.57;5.57;;;;;;;21.00;55.16;93478.56;5008142;28;20049;-57
2022/06/20 04:34:24;;;;;;;9.82;5.60;;;;;;;21.02;54.84;93470.44;5013697;28;20057;-58
2022/06/20 04:37:06;;;;;;;14.65;5.80;;;;;;;20.93;55.90;93473.44;5028748;28;20083;-58
2022/06/20 04:39:51;;;;;;;14.10;5.88;;;;;;;20.83;55.87;93464.47;5005070;28;21458;-58
2022/06/20 04:42:21;;;;;;;15.07;5.87;;;;;;;20.95;55.82;93463.31;5003599;28;20038;-58
2022/06/20 04:44:55;;;;;;;11.98;5.85;;;;;;;20.95;55.62;93474.47;5023725;28;20050;-57
2022/06/20 04:47:24;;;;;;;18.05;6.13;;;;;;;21.02;54.47;93464.88;5044207;28;20038;-58
2022/06/20 04:49:52;;;;;;;15.13;5.25;;;;;;;20.99;54.10;93465.09;5037624;28;20056;-58
2022/06/20 04:52:26;;;;;;;12.57;5.80;;;;;;;20.98;54.71;93474.72;5048732;28;20048;-58
2022/06/20 04:54:55;;;;;;;11.83;5.40;;;;;;;21.45;53.32;93492.91;5049101;28;20425;-59
2022/06/20 04:57:25;;;;;;;10.85;6.25;;;;;;;21.28;54.24;93489.94;5034584;28;20049;-58
2022/06/20 04:59:59;;;;;;;11.90;6.15;;;;;;;21.64;53.30;93481.34;5049068;28;20101;-57
2022/06/20 05:02:26;;;;;;;14.50;6.03;;;;;;;21.59;52.95;93479.25;5048406;28;20048;-58
2022/06/20 05:04:57;;;;;;;11.60;6.18;;;;;;;21.46;53.13;93482.50;5048859;28;20112;-58
2022/06/20 05:07:33;;;;;;;15.83;5.80;;;;;;;21.52;52.33;93469.31;5048669;28;20044;-58
2022/06/20 05:10:00;;;;;;;12.65;5.35;;;;;;;21.87;51.36;93476.63;5049482;28;20049;-58
2022/06/20 05:12:37;;;;;;;14.38;6.00;;;;;;;21.59;52.17;93477.25;5050409;28;20053;-58
2022/06/20 05:15:18;;;;;;;9.82;6.00;;;;;;;22.26;49.45;93464.91;5026725;28;20098;-59
2022/06/20 05:17:46;;;;;;;14.88;6.30;;;;;;;23.53;47.26;93475.22;5032493;28;20716;-58
2022/06/20 05:20:34;;;;;;;14.20;5.77;;;;;;;24.95;43.28;93476.25;5032836;28;20432;-58
2022/06/20 05:23:16;;;;;;;12.68;5.78;;;;;;;24.59;43.50;93464.22;5033277;28;20223;-57
2022/06/20 05:25:44;;;;;;;14.20;5.78;;;;;;;24.38;43.51;93481.38;5017754;28;21351;-58
2022/06/20 05:28:16;;;;;;;12.13;5.70;;;;;;;24.13;43.98;93483.28;5020046;28;20053;-58
2022/06/20 05:30:44;;;;;;;11.95;5.72;;;;;;;24.21;45.26;93494.72;5031726;28;20038;-58
2022/06/20 05:33:28;;;;;;;9.47;5.43;;;;;;;23.73;44.44;93488.19;5026202;28;20053;-59
2022/06/20 05:36:10;;;;;;;11.73;5.40;;;;;;;23.08;46.50;93506.03;5031399;28;20045;-59
2022/06/20 05:38:43;;;;;;;11.95;6.30;;;;;;;23.31;45.50;93501.22;5051916;28;20070;-58
2022/06/20 05:41:14;;;;;;;13.50;5.53;;;;;;;23.63;44.95;93500.94;5038357;28;20489;-58
2022/06/20 05:43:42;;;;;;;10.43;5.97;;;;;;;23.51;45.25;93495.34;5041761;28;20071;-58
2022/06/20 05:46:48;;;;;;;12.60;5.80;;;;;;;23.56;44.65;93502.19;5049051;28;20067;-58
2022/06/20 05:49:25;;;;;;;9.52;5.65;;;;;;;24.77;42.49;93494.47;5001847;28;20186;-59
2022/06/20 05:51:55;;;;;;;7.55;5.50;;;;;;;25.93;39.58;93501.00;5025050;28;20127;-58
2022/06/20 05:54:27;;;;;;;10.40;5.43;;;;;;;24.43;43.46;93479.84;5031801;28;20098;-59
2022/06/20 05:57:02;;;;;;;11.27;6.10;;;;;;;24.19;45.55;93500.09;5032547;28;20053;-58
2022/06/20 05:59:28;;;;;;;8.87;5.50;;;;;;;22.79;48.80;93507.22;5031976;28;20048;-58
2022/06/20 06:02:00;;;;;;;8.88;5.97;;;;;;;22.85;47.01;93522.75;5032358;28;20047;-59
2022/06/20 06:04:41;;;;;;;12.85;5.80;;;;;;;22.43;48.20;93513.22;5030738;28;20048;-58
2022/06/20 06:07:17;;;;;;;9.07;6.07;;;;;;;22.16;47.72;93517.41;5031525;28;20038;-58
2022/06/20 06:10:10;;;;;;;9.30;5.88;;;;;;;22.17;47.85;93524.53;5023067;28;20454;-59
2022/06/20 06:12:42;;;;;;;9.60;5.73;;;;;;;23.26;45.77;93525.16;5010357;28;20084;-58
2022/06/20 06:15:23;;;;;;;11.10;6.13;;;;;;;25.37;40.79;93515.53;5032095;28;20068;-59
2022/06/20 06:17:57;;;;;;;10.05;6.00;;;;;;;26.75;38.25;93510.31;5047058;28;20053;-58
2022/06/20 06:20:26;;;;;;;10.95;6.00;;;;;;;24.37;41.85;93521.94;5043413;28;20055;-58
2022/06/20 06:22:59;;;;;;;8.88;5.95;;;;;;;23.98;43.05;93522.78;5037194;28;20041;-58
2022/06/20 06:25:32;;;;;;;10.83;6.00;;;;;;;23.64;45.03;93525.66;5050556;28;20118;-58
2022/06/20 06:28:12;;;;;;;10.60;6.20;;;;;;;23.03;46.03;93531.97;5033753;28;20790;-58
2022/06/20 06:30:58;;;;;;;10.50;6.00;;;;;;;23.92;44.93;93531.25;5042778;28;21254;-58
2022/06/20 06:33:28;;;;;;;10.77;5.88;;;;;;;24.22;42.55;93544.66;5048459;28;20438;-58
2022/06/20 06:36:18;;;;;;;11.07;6.18;;;;;;;23.68;44.38;93537.34;5051886;28;20485;-58
2022/06/20 06:38:55;;;;;;;13.67;5.93;;;;;;;24.42;42.10;93535.16;5029642;28;20045;-58
2022/06/20 06:41:37;;;;;;;10.63;6.35;;;;;;;24.77;40.91;93539.38;5031286;28;20053;-59
2022/06/20 06:44:18;;;;;;;10.48;5.57;;;;;;;25.62;39.37;93545.22;5022059;28;20164;-58
2022/06/20 06:46:50;;;;;;;9.45;5.65;;;;;;;24.26;41.30;93531.13;5024769;28;20050;-57
2022/06/20 06:49:25;;;;;;;10.15;5.80;;;;;;;25.85;38.76;93526.09;5030943;28;20095;-59
2022/06/20 06:52:06;;;;;;;9.23;5.90;;;;;;;24.22;41.65;93533.44;5031503;28;20057;-60
2022/06/20 06:54:42;;;;;;;9.43;5.75;;;;;;;24.52;40.74;93542.03;5050344;28;20455;-59
2022/06/20 06:57:17;;;;;;;12.95;6.10;;;;;;;23.61;42.77;93535.06;5050980;28;20061;-59
2022/06/20 06:59:52;;;;;;;8.63;5.72;;;;;;;24.36;41.64;93544.88;5051560;28;20374;-59
2022/06/20 07:02:27;;;;;;;9.82;5.85;;;;;;;24.33;41.19;93543.88;5051003;28;20485;-59
2022/06/20 07:05:00;;;;;;;11.50;6.07;;;;;;;24.68;40.45;93553.69;5051214;28;20067;-59
2022/06/20 07:07:44;;;;;;;10.90;5.57;;;;;;;25.40;39.19;93546.16;5039180;28;20049;-59
2022/06/20 07:10:18;;;;;;;10.20;6.05;;;;;;;26.49;36.75;93548.22;5028740;28;20057;-59
2022/06/20 07:12:51;;;;;;;8.95;5.47;;;;;;;26.86;36.53;93546.00;5031348;28;20045;-60
2022/06/20 07:15:20;;;;;;;10.02;5.57;;;;;;;26.76;36.53;93561.75;5026161;28;20114;-59
2022/06/20 07:17:57;;;;;;;8.07;5.23;;;;;;;26.05;37.58;93558.66;5038802;28;20049;-59
2022/06/20 07:20:28;;;;;;;10.38;5.88;;;;;;;24.89;39.63;93568.13;5025321;28;20063;-59
2022/06/20 07:22:59;;;;;;;9.75;5.63;;;;;;;26.20;37.74;93555.47;5050971;28;20045;-59
2022/06/20 07:25:35;;;;;;;9.05;5.80;;;;;;;25.86;38.46;93564.19;5035903;28;20137;-60
2022/06/20 07:28:34;;;;;;;8.23;6.03;;;;;;;26.04;38.33;93564.81;5037052;28;20498;-59
2022/06/20 07:31:11;;;;;;;6.93;5.33;;;;;;;28.78;33.44;93557.03;5010178;28;20060;-60
2022/06/20 07:33:45;;;;;;;12.20;5.30;;;;;;;29.88;31.28;93573.34;5016758;28;21465;-60
2022/06/20 07:36:16;;;;;;;12.07;5.10;;;;;;;30.52;29.87;93568.44;5013084;28;20057;-60
2022/06/20 07:39:01;;;;;;;8.05;5.10;;;;;;;33.59;25.64;93562.34;5023868;28;20065;-58
2022/06/20 07:41:40;;;;;;;8.55;4.70;;;;;;;32.85;25.83;93558.59;5010908;28;20060;-58
2022/06/20 07:44:17;;;;;;;8.27;4.67;;;;;;;33.21;25.46;93552.63;5024305;28;20402;-59
2022/06/20 07:46:54;;;;;;;7.68;4.70;;;;;;;35.30;23.20;93561.13;5030402;28;20045;-60
2022/06/20 07:49:28;;;;;;;7.82;4.55;;;;;;;34.48;23.25;93562.88;5029977;28;20037;-60
2022/06/20 07:51:59;;;;;;;6.28;4.72;;;;;;;33.78;23.78;93559.00;5030416;28;20053;-60
2022/06/20 07:54:34;;;;;;;6.90;4.15;;;;;;;34.27;23.28;93565.34;5029707;28;20042;-59
2022/06/20 07:57:08;;;;;;;6.37;4.30;;;;;;;32.47;25.77;93565.09;5040322;28;20048;-59
2022/06/20 07:59:46;;;;;;;10.13;4.50;;;;;;;33.19;25.49;93566.69;5049089;28;20086;-59
2022/06/20 08:02:50;;;;;;;7.40;4.30;;;;;;;33.42;24.61;93558.06;5049776;28;20053;-59
2022/06/20 08:05:41;;;;;;;9.20;4.20;;;;;;;35.44;22.18;93561.53;5049453;28;20393;-60
2022/06/20 08:08:17;;;;;;;7.20;4.00;;;;;;;36.56;20.75;93563.16;5049536;28;20063;-60
2022/06/20 08:10:54;;;;;;;6.57;4.63;;;;;;;34.75;21.98;93554.50;5015243;28;20038;-59
2022/06/20 08:13:42;;;;;;;6.80;4.20;;;;;;;34.74;22.33;93558.66;5029373;28;20110;-60
2022/06/20 08:16:22;;;;;;;5.72;3.90;;;;;;;32.98;24.43;93555.56;5033183;28;20513;-60
2022/06/20 08:18:49;;;;;;;7.47;4.10;;;;;;;35.90;21.17;93560.94;5036975;28;20143;-60
2022/06/20 08:21:24;;;;;;;7.93;3.70;;;;;;;31.96;25.00;93551.81;5035186;28;20040;-59
2022/06/20 08:24:01;;;;;;;9.60;4.10;;;;;;;32.76;24.00;93562.81;5049928;28;20190;-59
2022/06/20 08:26:34;;;;;;;6.80;4.03;;;;;;;34.86;22.04;93578.16;5048986;28;20037;-61
2022/06/20 08:29:09;;;;;;;6.85;3.95;;;;;;;35.27;20.83;93579.41;5036842;28;20072;-60
2022/06/20 08:31:51;;;;;;;6.82;3.70;;;;;;;37.02;19.12;93564.47;5003420;28;20404;-60
2022/06/20 08:34:33;;;;;;;5.03;3.45;;;;;;;36.42;19.87;93564.91;5023265;28;20201;-60
2022/06/20 08:37:12;;;;;;;6.30;3.90;;;;;;;37.36;19.17;93572.03;5029624;28;20050;-60
2022/06/20 08:39:44;;;;;;;5.78;3.45;;;;;;;36.52;19.38;93572.19;5048606;28;21762;-60
2022/06/20 08:42:48;;;;;;;6.90;3.67;;;;;;;36.37;20.16;93575.28;5049229;28;20110;-60
2022/06/20 08:45:50;;;;;;;5.78;3.60;;;;;;;35.50;21.00;93578.41;5039664;28;20049;-60
2022/06/20 08:48:33;;;;;;;5.60;3.85;;;;;;;35.12;21.23;93579.56;5028036;28;20079;-60
2022/06/20 08:51:06;;;;;;;8.70;4.00;;;;;;;36.34;20.18;93565.03;5029807;28;20366;-60
2022/06/20 08:54:00;;;;;;;7.65;3.80;;;;;;;37.74;19.04;93570.50;5048614;28;20045;-60
2022/06/20 08:56:38;;;;;;;8.32;4.15;;;;;;;38.02;18.49;93580.38;5048826;28;20059;-60
2022/06/20 08:59:08;;;;;;;6.13;4.15;;;;;;;35.70;21.34;93582.91;5049700;28;20047;-59
2022/06/20 09:01:51;;;;;;;5.57;3.80;;;;;;;36.24;20.47;93581.41;5048627;28;20784;-60
2022/06/20 09:04:40;;;;;;;6.70;3.70;;;;;;;39.81;17.08;93581.75;5048709;28;20118;-60
2022/06/20 09:07:34;;;;;;;6.97;3.70;;;;;;;40.23;17.21;93588.75;5048585;28;20045;-59
2022/06/20 09:10:24;;;;;;;6.97;3.80;;;;;;;38.35;18.10;93589.22;5023688;28;20166;-60
2022/06/20 09:13:22;;;;;;;6.05;3.80;;;;;;;37.49;19.87;93588.75;5020142;28;21603;-60
2022/06/20 09:16:05;;;;;;;6.93;3.90;;;;;;;37.06;19.46;93579.81;5011931;28;20057;-62
2022/06/20 09:19:09;;;;;;;9.10;4.00;;;;;;;37.50;19.17;93578.03;5022457;28;20049;-60
2022/06/20 09:21:47;;;;;;;7.25;3.70;;;;;;;39.58;17.43;93587.41;5014261;28;20721;-61
2022/06/20 09:24:46;;;;;;;7.43;3.50;;;;;;;39.12;17.75;93586.53;5027242;28;20045;-60
2022/06/20 09:27:41;;;;;;;8.45;3.88;;;;;;;36.94;20.19;93576.78;5018434;28;20045;-60
2022/06/20 09:30:15;;;;;;;6.03;3.72;;;;;;;39.45;18.04;93578.00;5007233;28;20053;-60
2022/06/20 09:33:18;;;;;;;6.50;3.57;;;;;;;39.95;17.58;93584.84;5026926;28;20041;-60
2022/06/20 09:35:51;;;;;;;6.88;3.50;;;;;;;38.08;18.31;93580.84;5021153;28;20075;-62
2022/06/20 09:38:30;;;;;;;5.30;3.67;;;;;;;39.35;17.60;93569.44;5028419;28;20041;-60
2022/06/20 09:41:08;;;;;;;5.70;3.60;;;;;;;40.67;15.96;93574.91;5028868;28;20053;-61
2022/06/20 09:43:49;;;;;;;7.47;3.80;;;;;;;38.00;18.52;93582.38;5047773;28;21251;-61
2022/06/20 09:46:50;;;;;;;6.70;3.63;;;;;;;40.18;16.75;93572.63;5023796;28;20053;-58
2022/06/20 09:49:30;;;;;;;4.82;3.40;;;;;;;41.63;15.28;93568.38;5025357;28;20075;-60
2022/06/20 09:52:03;;;;;;;7.97;3.72;;;;;;;41.37;15.58;93564.69;5028125;28;20400;-59
2022/06/20 09:54:54;;;;;;;4.95;3.42;;;;;;;40.81;15.97;93572.94;5027298;28;20521;-59
2022/06/20 09:57:39;;;;;;;6.10;3.47;;;;;;;41.48;15.77;93558.16;5028430;28;20053;-59
2022/06/20 10:00:14;;;;;;;5.30;3.37;;;;;;;41.95;15.98;93563.69;5032400;28;20054;-59
2022/06/20 10:02:43;;;;;;;6.25;3.45;;;;;;;39.78;17.24;93562.88;5051010;28;21529;-60
2022/06/20 10:05:40;;;;;;;7.82;3.60;;;;;;;38.52;18.38;93556.72;5051701;28;20544;-59
2022/06/20 10:08:12;;;;;;;5.43;3.58;;;;;;;38.80;18.43;93557.16;5010364;28;20077;-59
2022/06/20 10:10:51;;;;;;;6.90;3.60;;;;;;;39.70;17.32;93560.25;5023926;28;20056;-59
2022/06/20 10:13:28;;;;;;;6.90;3.60;;;;;;;41.47;16.25;93545.13;5021753;28;20066;-59
2022/06/20 10:16:32;;;;;;;6.57;3.47;;;;;;;37.96;18.55;93542.72;5023874;28;20043;-59
2022/06/20 10:19:32;;;;;;;7.80;3.70;;;;;;;38.19;18.63;93553.66;5045905;28;20046;-59
2022/06/20 10:22:26;;;;;;;6.68;3.70;;;;;;;36.83;19.88;93542.34;4979332;28;20053;-59
2022/06/20 10:25:10;;;;;;;9.20;3.70;;;;;;;37.21;19.14;93555.94;5021250;28;20045;-59
2022/06/20 10:28:09;;;;;;;7.23;3.50;;;;;;;37.06;19.21;93536.16;5029180;28;20045;-59
2022/06/20 10:30:49;;;;;;;6.72;3.58;;;;;;;37.26;19.46;93549.13;5020120;28;20072;-59
2022/06/20 10:33:31;;;;;;;7.03;3.83;;;;;;;36.46;19.98;93543.13;5025608;28;20050;-58
2022/06/20 10:36:16;;;;;;;6.80;3.53;;;;;;;38.35;18.16;93537.63;5029673;28;20052;-59
2022/06/20 10:39:11;;;;;;;6.47;3.78;;;;;;;38.34;18.35;93538.22;5029742;28;20277;-59
2022/06/20 10:42:02;;;;;;;8.23;3.60;;;;;;;36.63;19.74;93548.00;5029950;28;20519;-58
2022/06/20 10:44:48;;;;;;;8.65;4.10;;;;;;;35.83;21.17;93543.91;5026773;28;20141;-59
2022/06/20 10:47:23;;;;;;;8.32;4.30;;;;;;;34.77;21.79;93543.25;5037252;28;20052;-58
2022/06/20 10:50:09;;;;;;;6.30;4.18;;;;;;;34.02;22.94;93548.97;5032091;28;20410;-59
2022/06/20 10:53:22;;;;;;;7.93;4.20;;;;;;;34.22;22.29;93550.00;5030641;28;21438;-58
2022/06/20 10:56:19;;;;;;;6.37;4.27;;;;;;;32.99;23.10;93542.84;5028819;28;21001;-58
2022/06/20 10:59:16;;;;;;;5.75;4.10;;;;;;;33.48;22.97;93537.16;5007085;28;20056;-59
2022/06/20 11:02:06;;;;;;;9.95;4.40;;;;;;;32.91;23.91;93547.03;5017731;28;21702;-59
2022/06/20 11:04:45;;;;;;;10.13;4.20;;;;;;;32.91;23.74;93538.50;5050270;28;21095;-59
2022/06/20 11:07:19;;;;;;;5.72;4.40;;;;;;;32.28;24.97;93542.78;5050457;28;20070;-58
2022/06/20 11:10:06;;;;;;;7.00;4.30;;;;;;;32.68;24.23;93521.50;5049300;28;20408;-58
2022/06/20 11:12:55;;;;;;;7.07;4.35;;;;;;;33.18;24.34;93528.22;5049925;28;21322;-58
2022/06/20 11:15:28;;;;;;;6.97;4.30;;;;;;;32.59;24.38;93529.31;5046206;28;20053;-58
2022/06/20 11:18:03;;;;;;;7.43;4.53;;;;;;;33.22;24.63;93520.03;5051064;28;20075;-59
2022/06/20 11:20:42;;;;;;;6.90;4.38;;;;;;;33.36;24.85;93516.91;5030466;28;20075;-59
2022/06/20 11:23:17;;;;;;;9.23;4.70;;;;;;;32.54;24.93;93518.88;5023888;28;20046;-59
2022/06/20 11:26:11;;;;;;;6.80;4.22;;;;;;;32.54;24.32;93530.25;5017247;28;20057;-59
2022/06/20 11:28:44;;;;;;;8.00;4.50;;;;;;;32.90;24.41;93517.09;5044008;28;20670;-58
2022/06/20 11:31:14;;;;;;;8.27;4.50;;;;;;;32.67;24.82;93517.16;5029114;28;20412;-58
2022/06/20 11:34:27;;;;;;;6.72;4.43;;;;;;;33.00;23.72;93524.47;5041463;28;20212;-59
2022/06/20 11:37:11;;;;;;;7.27;4.50;;;;;;;32.38;24.16;93529.50;5026355;28;20566;-59
2022/06/20 11:40:04;;;;;;;7.20;4.55;;;;;;;32.82;24.70;93522.78;5029017;28;20579;-58
2022/06/20 11:43:07;;;;;;;8.38;4.78;;;;;;;32.67;25.18;93522.84;5030080;28;20049;-60
2022/06/20 11:45:56;;;;;;;9.90;5.07;;;;;;;31.19;27.10;93532.53;5029326;28;20719;-60
2022/06/20 11:48:31;;;;;;;8.90;4.97;;;;;;;31.14;27.08;93527.78;5028276;28;20053;-59
2022/06/20 11:51:18;;;;;;;9.43;5.00;;;;;;;31.67;26.62;93520.75;5030415;28;20033;-59
2022/06/20 11:54:09;;;;;;;8.00;5.05;;;;;;;32.34;25.31;93520.63;5029155;28;20041;-59
2022/06/20 11:56:58;;;;;;;7.75;4.90;;;;;;;33.01;25.72;93522.38;5007030;28;20663;-58
2022/06/20 11:59:38;;;;;;;8.50;4.93;;;;;;;32.58;25.51;93530.63;5029483;28;20045;-58
2022/06/20 12:02:23;;;;;;;8.95;4.90;;;;;;;32.89;24.89;93524.88;5031044;28;20048;-58
2022/06/20 12:05:00;;;;;;;7.80;5.00;;;;;;;32.91;24.93;93524.31;5029410;28;20490;-58
2022/06/20 12:07:49;;;;;;;8.82;4.88;;;;;;;32.80;24.51;93512.03;5049189;28;20049;-58
2022/06/20 12:10:22;;;;;;;7.63;5.18;;;;;;;32.48;25.20;93512.66;5049710;28;20383;-58
2022/06/20 12:13:04;;;;;;;7.22;4.88;;;;;;;33.07;24.40;93510.78;5049721;28;20148;-59
2022/06/20 12:15:51;;;;;;;9.73;4.55;;;;;;;33.41;25.23;93513.13;5017773;28;20507;-58
2022/06/20 12:18:34;;;;;;;8.97;4.80;;;;;;;32.99;24.20;93514.41;5049710;28;20049;-58
2022/06/20 12:24:02;;;;;;;8.55;5.15;;;;;;;32.01;25.47;93506.22;5020753;28;20668;-59
2022/06/20 12:26:39;;;;;;;8.75;5.10;;;;;;;32.85;24.83;93504.59;5032397;28;20408;-59
2022/06/20 12:29:14;;;;;;;6.93;4.93;;;;;;;32.74;25.39;93505.00;5038885;28;20057;-59